Terminal Aerodrome Forecast
Issued by NWS

Home | Current Version | Previous Version | Text Only | Print | Product List | Glossary On
Versions: 1 2 3 4 5 6 7 8 9 10 11 12 13 14 15 16 17
000
FTUS45 KTFX 272343
TAFHLN
TAF
KHLN 272343Z 2800/2824 VRB05KT P6SM VCSH SCT050 BKN080
     FM281800 28015KT P6SM VCSH SCT035 BKN060 PROB30 2818/2824 4SM
      -SHSN BR BKN025=

USA.gov is the U.S. government's official web portal to all federal, state and local government web resources and services.